VOZ869 YMML-YSSY
Flight info
| Callsign | VOZ869 |
|---|---|
| Flight time | 1h 15m |
| Altitude | 37000 |
| Route | DOSEL2/34 DOSEL Y59 RIVET |
| Aircraft | B738/M-SDE2E3FGHIRWXY/LB1 |
Departure
| Time | 2026-05-04 08:02 |
|---|---|
| Airport | Melbourne Airport (YMML) |
Arrival
| Time | 2026-05-04 09:17 |
|---|---|
| Airport | Sydney Kingsford Smith International Airport (YSSY) |
| Time | Latitude | Longitude | Altitude | Speed | Heading |
|---|---|---|---|---|---|
| 2026-05-04 06:48 | -37.67058 | 144.84623 | 396 ft | 0 kts | 172° |
| 2026-05-04 07:29 | -37.67050 | 144.84621 | 393 ft | 2 kts | 172° |
| 2026-05-04 07:29 | -37.67045 | 144.84620 | 394 ft | 0 kts | 171° |
| 2026-05-04 07:30 | -37.67034 | 144.84618 | 397 ft | 2 kts | 171° |
| 2026-05-04 07:30 | -37.67018 | 144.84615 | 396 ft | 2 kts | 171° |
| 2026-05-04 07:31 | -37.67002 | 144.84612 | 397 ft | 2 kts | 171° |
| 2026-05-04 07:31 | -37.66986 | 144.84609 | 397 ft | 2 kts | 171° |
| 2026-05-04 07:33 | -37.66933 | 144.84597 | 401 ft | 2 kts | 170° |
| 2026-05-04 07:33 | -37.66926 | 144.84596 | 401 ft | 0 kts | 169° |
| 2026-05-04 07:46 | -37.66927 | 144.84596 | 401 ft | 0 kts | 167° |
| 2026-05-04 07:47 | -37.66929 | 144.84597 | 401 ft | 1 kts | 166° |
| 2026-05-04 07:47 | -37.66951 | 144.84598 | 400 ft | 6 kts | 185° |
| 2026-05-04 07:49 | -37.67019 | 144.84490 | 396 ft | 3 kts | 264° |
| 2026-05-04 07:49 | -37.67054 | 144.84452 | 393 ft | 12 kts | 197° |
| 2026-05-04 07:49 | -37.67127 | 144.84457 | 391 ft | 1 kts | 181° |
| 2026-05-04 07:50 | -37.67151 | 144.84455 | 390 ft | 6 kts | 188° |
| 2026-05-04 07:50 | -37.67197 | 144.84413 | 387 ft | 10 kts | 249° |
| 2026-05-04 07:50 | -37.67203 | 144.84374 | 386 ft | 0 kts | 265° |
| 2026-05-04 07:51 | -37.67203 | 144.84372 | 386 ft | 1 kts | 266° |
| 2026-05-04 07:51 | -37.67204 | 144.84354 | 386 ft | 5 kts | 266° |
| 2026-05-04 07:52 | -37.67227 | 144.84289 | 384 ft | 11 kts | 212° |
| 2026-05-04 07:52 | -37.67318 | 144.84291 | 381 ft | 16 kts | 172° |
| 2026-05-04 07:52 | -37.67441 | 144.84315 | 377 ft | 19 kts | 171° |
| 2026-05-04 07:52 | -37.67547 | 144.84335 | 373 ft | 16 kts | 171° |
| 2026-05-04 07:53 | -37.67662 | 144.84357 | 370 ft | 17 kts | 171° |
| 2026-05-04 07:54 | -37.68520 | 144.84317 | 342 ft | 18 kts | 225° |
| 2026-05-04 07:55 | -37.68553 | 144.84251 | 337 ft | 0 kts | 259° |
| 2026-05-04 07:57 | -37.68553 | 144.84233 | 341 ft | 7 kts | 268° |
| 2026-05-04 07:58 | -37.68541 | 144.84156 | 349 ft | 10 kts | 293° |
| 2026-05-04 07:58 | -37.68491 | 144.84090 | 350 ft | 11 kts | 335° |
| 2026-05-04 07:58 | -37.68431 | 144.84072 | 351 ft | 2 kts | 350° |
| 2026-05-04 07:58 | -37.68430 | 144.84072 | 351 ft | 0 kts | 350° |
| 2026-05-04 08:00 | -37.68426 | 144.84071 | 351 ft | 6 kts | 350° |
| 2026-05-04 08:00 | -37.68195 | 144.84028 | 356 ft | 68 kts | 352° |
| 2026-05-04 08:00 | -37.67496 | 144.83899 | 376 ft | 133 kts | 352° |
| 2026-05-04 08:02 | -37.59904 | 144.82475 | 4997 ft | 183 kts | 347° |
| 2026-05-04 08:02 | -37.58605 | 144.82703 | 5018 ft | 193 kts | 5° |
| 2026-05-04 08:02 | -37.57322 | 144.83308 | 5003 ft | 200 kts | 15° |
| 2026-05-04 08:03 | -37.56064 | 144.84076 | 5011 ft | 202 kts | 17° |
| 2026-05-04 08:03 | -37.54812 | 144.84857 | 4993 ft | 200 kts | 17° |
| 2026-05-04 08:03 | -37.53564 | 144.85632 | 5002 ft | 199 kts | 17° |
| 2026-05-04 08:03 | -37.52312 | 144.86405 | 4999 ft | 201 kts | 17° |
| 2026-05-04 08:04 | -37.51058 | 144.87174 | 5001 ft | 200 kts | 17° |
| 2026-05-04 08:04 | -37.49810 | 144.87936 | 4991 ft | 200 kts | 16° |
| 2026-05-04 08:04 | -37.48559 | 144.88697 | 5030 ft | 200 kts | 17° |
| 2026-05-04 08:04 | -37.47309 | 144.89454 | 5417 ft | 201 kts | 17° |
| 2026-05-04 08:05 | -37.46040 | 144.90223 | 5984 ft | 203 kts | 17° |
| 2026-05-04 08:05 | -37.44759 | 144.90998 | 6540 ft | 206 kts | 17° |
| 2026-05-04 08:05 | -37.43518 | 144.91954 | 7049 ft | 220 kts | 37° |
| 2026-05-04 08:05 | -37.42580 | 144.93512 | 7622 ft | 225 kts | 47° |
| 2026-05-04 08:06 | -37.41668 | 144.95141 | 8124 ft | 229 kts | 47° |
| 2026-05-04 08:06 | -37.40743 | 144.96793 | 8644 ft | 232 kts | 47° |
| 2026-05-04 08:06 | -37.39810 | 144.98457 | 9188 ft | 233 kts | 47° |
| 2026-05-04 08:06 | -37.38869 | 145.00131 | 9694 ft | 236 kts | 47° |
| 2026-05-04 08:08 | -37.33011 | 145.10510 | 12545 ft | 249 kts | 48° |
| 2026-05-04 08:08 | -37.32261 | 145.11835 | 12892 ft | 251 kts | 48° |
| 2026-05-04 08:10 | -37.23952 | 145.26473 | 16247 ft | 262 kts | 48° |
| 2026-05-04 08:11 | -37.22887 | 145.28344 | 16630 ft | 264 kts | 49° |
| 2026-05-04 08:11 | -37.20741 | 145.32112 | 17418 ft | 267 kts | 49° |
| 2026-05-04 08:11 | -37.19660 | 145.34010 | 17808 ft | 268 kts | 49° |
| 2026-05-04 08:12 | -37.18588 | 145.35889 | 18186 ft | 269 kts | 49° |
| 2026-05-04 08:12 | -37.17495 | 145.37802 | 18513 ft | 271 kts | 49° |
| 2026-05-04 08:12 | -37.16397 | 145.39724 | 18844 ft | 272 kts | 48° |
| 2026-05-04 08:12 | -37.15292 | 145.41653 | 19174 ft | 272 kts | 48° |
| 2026-05-04 08:13 | -37.14184 | 145.43586 | 19494 ft | 274 kts | 48° |
| 2026-05-04 08:13 | -37.13071 | 145.45526 | 19819 ft | 275 kts | 48° |
| 2026-05-04 08:13 | -37.11953 | 145.47473 | 20137 ft | 276 kts | 47° |
| 2026-05-04 08:13 | -37.10832 | 145.49425 | 20453 ft | 277 kts | 47° |
| 2026-05-04 08:14 | -37.09706 | 145.51387 | 20742 ft | 278 kts | 47° |
| 2026-05-04 08:14 | -37.08572 | 145.53360 | 21052 ft | 279 kts | 47° |
| 2026-05-04 08:14 | -37.07438 | 145.55334 | 21364 ft | 280 kts | 47° |
| 2026-05-04 08:16 | -36.99670 | 145.68999 | 23940 ft | 259 kts | 43° |
| 2026-05-04 08:16 | -36.98580 | 145.70854 | 23998 ft | 270 kts | 43° |
| 2026-05-04 08:16 | -36.97434 | 145.72785 | 24056 ft | 283 kts | 43° |
| 2026-05-04 08:17 | -36.96235 | 145.74808 | 24130 ft | 297 kts | 44° |
| 2026-05-04 08:17 | -36.94976 | 145.76943 | 24204 ft | 314 kts | 44° |
| 2026-05-04 08:17 | -36.93652 | 145.79197 | 24318 ft | 329 kts | 44° |
| 2026-05-04 08:17 | -36.92275 | 145.81554 | 24464 ft | 342 kts | 44° |
| 2026-05-04 08:19 | -36.81857 | 145.99528 | 26540 ft | 376 kts | 44° |
| 2026-05-04 08:19 | -36.80304 | 146.02187 | 26867 ft | 382 kts | 43° |
| 2026-05-04 08:20 | -36.78730 | 146.04882 | 27242 ft | 386 kts | 43° |
| 2026-05-04 08:20 | -36.77140 | 146.07605 | 27640 ft | 391 kts | 43° |
| 2026-05-04 08:20 | -36.75534 | 146.10355 | 28036 ft | 394 kts | 43° |
| 2026-05-04 08:20 | -36.73937 | 146.13090 | 28439 ft | 397 kts | 43° |
| 2026-05-04 08:21 | -36.72284 | 146.15918 | 28855 ft | 399 kts | 43° |
| 2026-05-04 08:21 | -36.70644 | 146.18721 | 29277 ft | 402 kts | 43° |
| 2026-05-04 08:21 | -36.68994 | 146.21540 | 29699 ft | 404 kts | 43° |
| 2026-05-04 08:21 | -36.67358 | 146.24331 | 30112 ft | 405 kts | 43° |
| 2026-05-04 08:22 | -36.65671 | 146.27206 | 30464 ft | 407 kts | 43° |
| 2026-05-04 08:22 | -36.63995 | 146.30061 | 30807 ft | 408 kts | 43° |
| 2026-05-04 08:24 | -36.52186 | 146.50113 | 33340 ft | 411 kts | 43° |
| 2026-05-04 08:24 | -36.50471 | 146.53003 | 33442 ft | 417 kts | 43° |
| 2026-05-04 08:24 | -36.48770 | 146.55900 | 33922 ft | 415 kts | 44° |
| 2026-05-04 08:24 | -36.47084 | 146.58841 | 34021 ft | 423 kts | 45° |
| 2026-05-04 08:25 | -36.45386 | 146.61893 | 33916 ft | 434 kts | 46° |
| 2026-05-04 08:25 | -36.43707 | 146.65020 | 34314 ft | 431 kts | 47° |
| 2026-05-04 08:25 | -36.42074 | 146.68055 | 35082 ft | 413 kts | 46° |
| 2026-05-04 08:25 | -36.40524 | 146.70935 | 36008 ft | 395 kts | 46° |
| 2026-05-04 08:27 | -36.26123 | 146.94107 | 34331 ft | 437 kts | 45° |
| 2026-05-04 08:28 | -36.24371 | 146.97183 | 33943 ft | 436 kts | 45° |
| 2026-05-04 08:28 | -36.22672 | 147.00262 | 33651 ft | 429 kts | 45° |
| 2026-05-04 08:28 | -36.21034 | 147.03256 | 33833 ft | 411 kts | 46° |
| 2026-05-04 08:28 | -36.19491 | 147.06197 | 34173 ft | 405 kts | 47° |
| 2026-05-04 08:29 | -36.16340 | 147.12080 | 34341 ft | 411 kts | 42° |
| 2026-05-04 08:31 | -36.01145 | 147.35289 | 34296 ft | 466 kts | 44° |
| 2026-05-04 08:33 | -35.87199 | 147.58298 | 34283 ft | 480 kts | 43° |
| 2026-05-04 08:33 | -35.85195 | 147.61581 | 34283 ft | 480 kts | 43° |
| 2026-05-04 08:35 | -35.69336 | 147.87436 | 34302 ft | 472 kts | 43° |
| 2026-05-04 08:35 | -35.65365 | 147.93882 | 34303 ft | 473 kts | 43° |
| 2026-05-04 08:37 | -35.52025 | 148.15452 | 34295 ft | 478 kts | 42° |
| 2026-05-04 08:38 | -35.47335 | 148.23007 | 34296 ft | 480 kts | 42° |
| 2026-05-04 08:38 | -35.43945 | 148.28458 | 34303 ft | 479 kts | 42° |
| 2026-05-04 08:40 | -35.27688 | 148.54453 | 34304 ft | 482 kts | 42° |
| 2026-05-04 08:41 | -35.23606 | 148.60954 | 34300 ft | 482 kts | 42° |
| 2026-05-04 08:41 | -35.19520 | 148.67447 | 34298 ft | 482 kts | 42° |
| 2026-05-04 08:42 | -35.15420 | 148.73951 | 34299 ft | 482 kts | 42° |
| 2026-05-04 08:42 | -35.11339 | 148.80412 | 34297 ft | 482 kts | 42° |
| 2026-05-04 08:43 | -35.07243 | 148.86885 | 34295 ft | 481 kts | 42° |
| 2026-05-04 08:43 | -35.03153 | 148.93341 | 34281 ft | 476 kts | 42° |
| 2026-05-04 08:43 | -35.01156 | 148.96502 | 34019 ft | 466 kts | 42° |
| 2026-05-04 08:44 | -34.99181 | 148.99620 | 33508 ft | 462 kts | 42° |
| 2026-05-04 08:44 | -34.97219 | 149.02704 | 32967 ft | 459 kts | 42° |
| 2026-05-04 08:46 | -34.84008 | 149.23410 | 30404 ft | 420 kts | 42° |
| 2026-05-04 08:46 | -34.82200 | 149.26224 | 30176 ft | 425 kts | 42° |
| 2026-05-04 08:46 | -34.80369 | 149.29068 | 29913 ft | 430 kts | 42° |
| 2026-05-04 08:46 | -34.78532 | 149.31933 | 29626 ft | 428 kts | 43° |
| 2026-05-04 08:47 | -34.76712 | 149.34777 | 29340 ft | 424 kts | 42° |
| 2026-05-04 08:47 | -34.74907 | 149.37593 | 29061 ft | 421 kts | 43° |
| 2026-05-04 08:47 | -34.73243 | 149.40541 | 28768 ft | 427 kts | 51° |
| 2026-05-04 08:47 | -34.71823 | 149.43712 | 28502 ft | 427 kts | 53° |
| 2026-05-04 08:48 | -34.70456 | 149.46907 | 28236 ft | 425 kts | 53° |
| 2026-05-04 08:48 | -34.69107 | 149.50092 | 27884 ft | 422 kts | 53° |
| 2026-05-04 08:48 | -34.67766 | 149.53240 | 27472 ft | 417 kts | 53° |
| 2026-05-04 08:48 | -34.66430 | 149.56347 | 27040 ft | 413 kts | 53° |
| 2026-05-04 08:49 | -34.65096 | 149.59421 | 26601 ft | 410 kts | 53° |
| 2026-05-04 08:50 | -34.57331 | 149.77156 | 25043 ft | 369 kts | 52° |
| 2026-05-04 08:50 | -34.56145 | 149.79858 | 25039 ft | 356 kts | 51° |
| 2026-05-04 08:51 | -34.55000 | 149.82462 | 25029 ft | 344 kts | 51° |
| 2026-05-04 08:51 | -34.53894 | 149.84971 | 25030 ft | 330 kts | 51° |
| 2026-05-04 08:51 | -34.52832 | 149.87379 | 25039 ft | 317 kts | 50° |
| 2026-05-04 08:51 | -34.51811 | 149.89693 | 25017 ft | 306 kts | 50° |
| 2026-05-04 08:52 | -34.50810 | 149.91952 | 25060 ft | 307 kts | 50° |
| 2026-05-04 08:52 | -34.49769 | 149.94275 | 25066 ft | 319 kts | 50° |
| 2026-05-04 08:52 | -34.48697 | 149.96672 | 25064 ft | 326 kts | 51° |
| 2026-05-04 08:52 | -34.47624 | 149.99095 | 25050 ft | 326 kts | 51° |
| 2026-05-04 08:53 | -34.46560 | 150.01507 | 25035 ft | 324 kts | 51° |
| 2026-05-04 08:54 | -34.39166 | 150.18167 | 25049 ft | 334 kts | 51° |
| 2026-05-04 08:55 | -34.38029 | 150.20698 | 25071 ft | 351 kts | 52° |
| 2026-05-04 08:55 | -34.36838 | 150.23355 | 24947 ft | 368 kts | 52° |
| 2026-05-04 08:55 | -34.35605 | 150.26116 | 24405 ft | 378 kts | 53° |
| 2026-05-04 08:55 | -34.34338 | 150.28964 | 23646 ft | 390 kts | 53° |
| 2026-05-04 08:57 | -34.25494 | 150.48823 | 21172 ft | 358 kts | 53° |
| 2026-05-04 09:01 | -34.09585 | 150.84200 | 16326 ft | 329 kts | 55° |
| 2026-05-04 09:01 | -34.08451 | 150.86706 | 15117 ft | 354 kts | 56° |
| 2026-05-04 09:01 | -34.07241 | 150.89384 | 13998 ft | 373 kts | 56° |
| 2026-05-04 09:01 | -34.05975 | 150.92192 | 12788 ft | 388 kts | 56° |
| 2026-05-04 09:02 | -34.04700 | 150.95122 | 11575 ft | 403 kts | 62° |
| 2026-05-04 09:02 | -34.04068 | 150.98481 | 10645 ft | 419 kts | 85° |
| 2026-05-04 09:02 | -34.04487 | 151.01900 | 10496 ft | 408 kts | 105° |
| 2026-05-04 09:02 | -34.05726 | 151.04904 | 10377 ft | 396 kts | 125° |
| 2026-05-04 09:03 | -34.07678 | 151.07126 | 10270 ft | 381 kts | 149° |
| 2026-05-04 09:03 | -34.10053 | 151.08388 | 9877 ft | 372 kts | 167° |
| 2026-05-04 09:03 | -34.12606 | 151.09029 | 9110 ft | 377 kts | 171° |
| 2026-05-04 09:03 | -34.15191 | 151.09628 | 8358 ft | 381 kts | 171° |
| 2026-05-04 09:04 | -34.17801 | 151.10270 | 7625 ft | 384 kts | 170° |
| 2026-05-04 09:04 | -34.20428 | 151.10935 | 6900 ft | 386 kts | 171° |
| 2026-05-04 09:04 | -34.23056 | 151.11549 | 6423 ft | 381 kts | 171° |
| 2026-05-04 09:04 | -34.25613 | 151.12118 | 6254 ft | 366 kts | 172° |
| 2026-05-04 09:05 | -34.28070 | 151.12644 | 6113 ft | 352 kts | 172° |
| 2026-05-04 09:05 | -34.30438 | 151.13153 | 6000 ft | 338 kts | 172° |
| 2026-05-04 09:05 | -34.32675 | 151.13623 | 5974 ft | 323 kts | 172° |
| 2026-05-04 09:05 | -34.34867 | 151.14084 | 5971 ft | 308 kts | 173° |
| 2026-05-04 09:06 | -34.36903 | 151.14493 | 5971 ft | 294 kts | 174° |
| 2026-05-04 09:07 | -34.43370 | 151.23236 | 5904 ft | 284 kts | 20° |
| 2026-05-04 09:08 | -34.42143 | 151.23869 | 6057 ft | 281 kts | 18° |
| 2026-05-04 09:08 | -34.39796 | 151.25108 | 6103 ft | 271 kts | 20° |
| 2026-05-04 09:08 | -34.38086 | 151.25978 | 6024 ft | 256 kts | 13° |
| 2026-05-04 09:08 | -34.36403 | 151.26537 | 5872 ft | 247 kts | 8° |
| 2026-05-04 09:09 | -34.34739 | 151.27001 | 5607 ft | 244 kts | 8° |
| 2026-05-04 09:09 | -34.33117 | 151.27321 | 5481 ft | 232 kts | 355° |
| 2026-05-04 09:09 | -34.31516 | 151.27070 | 5109 ft | 233 kts | 346° |
| 2026-05-04 09:09 | -34.29931 | 151.26653 | 4798 ft | 234 kts | 346° |
| 2026-05-04 09:10 | -34.28338 | 151.26225 | 4501 ft | 234 kts | 346° |
| 2026-05-04 09:10 | -34.26757 | 151.25811 | 4230 ft | 232 kts | 346° |
| 2026-05-04 09:10 | -34.25203 | 151.25410 | 3944 ft | 231 kts | 346° |
| 2026-05-04 09:10 | -34.23634 | 151.25009 | 3717 ft | 229 kts | 347° |
| 2026-05-04 09:11 | -34.22090 | 151.24615 | 3526 ft | 225 kts | 346° |
| 2026-05-04 09:11 | -34.20574 | 151.24228 | 3366 ft | 220 kts | 347° |
| 2026-05-04 09:11 | -34.19091 | 151.23851 | 3225 ft | 215 kts | 346° |
| 2026-05-04 09:11 | -34.17642 | 151.23481 | 3073 ft | 210 kts | 347° |
| 2026-05-04 09:12 | -34.16244 | 151.23124 | 2997 ft | 200 kts | 347° |
| 2026-05-04 09:12 | -34.14921 | 151.22786 | 2980 ft | 188 kts | 347° |
| 2026-05-04 09:14 | -34.06187 | 151.20555 | 2019 ft | 188 kts | 348° |
| 2026-05-04 09:14 | -34.04905 | 151.20228 | 1775 ft | 188 kts | 349° |
| 2026-05-04 09:14 | -34.03634 | 151.19904 | 1498 ft | 185 kts | 350° |
| 2026-05-04 09:14 | -34.02388 | 151.19586 | 1278 ft | 181 kts | 348° |
| 2026-05-04 09:15 | -34.01176 | 151.19276 | 1204 ft | 170 kts | 349° |
| 2026-05-04 09:15 | -34.00090 | 151.18998 | 1222 ft | 151 kts | 351° |
| 2026-05-04 09:15 | -33.99096 | 151.18743 | 1036 ft | 144 kts | 350° |
| 2026-05-04 09:15 | -33.98130 | 151.18497 | 720 ft | 140 kts | 351° |
| 2026-05-04 09:17 | -33.94413 | 151.17444 | 26 ft | 0 kts | 321° |
| 2026-05-04 09:19 | -33.94410 | 151.17442 | 26 ft | 5 kts | 321° |
| 2026-05-04 09:19 | -33.94354 | 151.17385 | 28 ft | 14 kts | 318° |
| 2026-05-04 09:20 | -33.94344 | 151.17259 | 25 ft | 20 kts | 254° |
| 2026-05-04 09:20 | -33.94387 | 151.17071 | 27 ft | 27 kts | 255° |
| 2026-05-04 09:20 | -33.94365 | 151.16904 | 25 ft | 23 kts | 337° |
| 2026-05-04 09:20 | -33.94207 | 151.16855 | 22 ft | 24 kts | 348° |
| 2026-05-04 09:21 | -33.94027 | 151.16803 | 21 ft | 28 kts | 346° |
| 2026-05-04 09:21 | -33.93941 | 151.16773 | 20 ft | 0 kts | 342° |
| 2026-05-04 09:23 | -33.93929 | 151.16759 | 20 ft | 7 kts | 300° |
| 2026-05-04 09:25 | -33.93930 | 151.16700 | 20 ft | 0 kts | 259° |